Time;durP1;ratioP1;P1;durP2;ratioP2;P2;SDS_P1;SDS_P2;PMS_P1;PMS_P2;Temp;Humidity;BMP_temperature;BMP_pressure;BME280_temperature;BME280_humidity;BME280_pressure;Samples;Min_cycle;Max_cycle;Signal;HPM_P1;HPM_P2
2022/04/08 00:00:15;;;;;;;6.78;1.70;;;;;;;3.92;100.00;98435.75;4964168;28;20525;-76
2022/04/08 00:02:41;;;;;;;3.70;1.20;;;;;;;3.81;100.00;98436.91;4965124;28;20035;-76
2022/04/08 00:05:07;;;;;;;5.60;1.30;;;;;;;3.80;100.00;98454.22;4947852;28;20027;-76
2022/04/08 00:07:33;;;;;;;6.10;1.60;;;;;;;3.75;100.00;98466.88;4965486;28;20043;-76
2022/04/08 00:09:59;;;;;;;8.88;1.73;;;;;;;3.69;100.00;98472.66;4953476;28;20034;-76
2022/04/08 00:12:24;;;;;;;7.50;1.80;;;;;;;3.69;100.00;98467.50;4957985;28;20042;-76
2022/04/08 00:14:50;;;;;;;4.00;1.55;;;;;;;3.63;100.00;98481.09;4963396;28;20038;-76
2022/04/08 00:17:15;;;;;;;6.50;1.80;;;;;;;3.55;100.00;98496.63;4952124;28;20546;-77
2022/04/08 00:19:41;;;;;;;7.03;1.70;;;;;;;3.44;100.00;98495.13;4960515;28;20490;-76
2022/04/08 00:22:07;;;;;;;6.40;2.13;;;;;;;3.45;100.00;98505.34;4969128;28;20039;-76
2022/04/08 00:24:33;;;;;;;10.48;1.33;;;;;;;3.31;100.00;98514.50;4952251;28;20027;-76
2022/04/08 00:26:59;;;;;;;8.82;1.20;;;;;;;3.30;100.00;98512.88;4949301;28;20389;-75
2022/04/08 00:29:24;;;;;;;9.23;1.13;;;;;;;3.34;100.00;98525.53;4950001;28;20488;-76
2022/04/08 00:31:57;;;;;;;12.48;1.40;;;;;;;3.22;100.00;98537.91;4945337;28;20071;-76
2022/04/08 00:34:24;;;;;;;8.57;1.20;;;;;;;3.29;100.00;98544.91;4933164;28;20542;-77
2022/04/08 00:36:50;;;;;;;7.25;1.27;;;;;;;3.29;100.00;98554.47;4952819;28;20034;-77
2022/04/08 00:39:16;;;;;;;5.30;1.33;;;;;;;3.34;100.00;98560.03;4963679;28;20042;-77
2022/04/08 00:41:42;;;;;;;11.75;1.67;;;;;;;3.34;100.00;98578.16;4951227;28;20053;-76
2022/04/08 00:44:07;;;;;;;12.98;1.80;;;;;;;3.26;100.00;98578.13;4952726;28;20074;-76
2022/04/08 00:46:33;;;;;;;9.55;1.65;;;;;;;3.17;100.00;98574.66;4951985;28;20134;-76
2022/04/08 00:48:58;;;;;;;12.35;1.70;;;;;;;3.21;100.00;98590.72;4967457;28;20113;-77
2022/04/08 00:51:24;;;;;;;16.15;2.08;;;;;;;3.28;100.00;98608.09;4948832;28;20130;-75
2022/04/08 00:53:51;;;;;;;13.10;1.92;;;;;;;3.24;100.00;98608.53;4966581;28;20134;-75
2022/04/08 00:56:21;;;;;;;8.00;1.25;;;;;;;3.34;100.00;98624.81;4948748;28;20154;-76
2022/04/08 00:58:46;;;;;;;13.80;1.40;;;;;;;3.23;100.00;98627.66;4966597;28;20035;-76
2022/04/08 01:01:13;;;;;;;11.15;1.73;;;;;;;3.17;100.00;98636.84;4966482;28;20038;-74
2022/04/08 01:03:38;;;;;;;7.05;1.60;;;;;;;3.17;100.00;98644.59;4963992;28;20444;-76
2022/04/08 01:06:04;;;;;;;15.82;1.67;;;;;;;3.20;100.00;98664.22;4952467;28;20042;-77
2022/04/08 01:08:30;;;;;;;8.93;1.48;;;;;;;3.20;100.00;98670.22;4953798;28;20121;-76
2022/04/08 01:10:56;;;;;;;9.32;1.50;;;;;;;3.29;100.00;98684.03;4952978;28;20038;-76
2022/04/08 01:13:22;;;;;;;10.18;1.60;;;;;;;3.26;100.00;98682.56;4963542;28;20039;-76
2022/04/08 01:15:47;;;;;;;15.07;1.92;;;;;;;3.30;100.00;98688.28;4964977;28;20105;-75
2022/04/08 01:18:13;;;;;;;16.85;1.73;;;;;;;3.26;100.00;98705.09;4973775;28;20109;-76
2022/04/08 01:20:39;;;;;;;15.15;1.95;;;;;;;3.26;100.00;98707.69;4956526;28;20038;-76
2022/04/08 01:23:05;;;;;;;11.05;1.33;;;;;;;3.21;100.00;98710.69;4967964;28;20042;-78
2022/04/08 01:25:31;;;;;;;18.58;2.22;;;;;;;3.19;100.00;98706.63;4944049;28;20503;-76
2022/04/08 01:27:56;;;;;;;12.88;2.15;;;;;;;3.19;100.00;98717.81;4969005;28;20043;-75
2022/04/08 01:30:22;;;;;;;16.63;2.45;;;;;;;3.18;100.00;98728.31;4939014;28;20066;-76
2022/04/08 01:32:48;;;;;;;14.27;1.60;;;;;;;3.16;100.00;98738.00;4951322;28;20031;-75
2022/04/08 01:35:13;;;;;;;14.25;2.10;;;;;;;3.24;100.00;98731.13;4962539;28;20066;-76
2022/04/08 01:37:39;;;;;;;14.60;1.90;;;;;;;3.21;100.00;98734.00;4953411;28;20152;-75
2022/04/08 01:40:07;;;;;;;12.98;1.98;;;;;;;3.22;100.00;98743.44;4949134;28;20389;-76
2022/04/08 01:42:33;;;;;;;17.98;1.88;;;;;;;3.07;100.00;98745.72;4951885;28;20039;-76
2022/04/08 01:44:59;;;;;;;15.38;2.13;;;;;;;3.12;100.00;98750.44;4953168;28;20421;-74
2022/04/08 01:47:24;;;;;;;15.30;1.98;;;;;;;3.22;100.00;98745.19;4959269;28;20034;-75
2022/04/08 01:49:51;;;;;;;17.02;2.17;;;;;;;3.20;100.00;98766.09;4983379;28;20097;-75
2022/04/08 01:52:16;;;;;;;11.65;1.48;;;;;;;3.25;100.00;98770.81;4967563;28;20038;-76
2022/04/08 01:54:42;;;;;;;15.27;1.63;;;;;;;3.37;100.00;98769.66;4953426;28;20034;-75
2022/04/08 01:57:08;;;;;;;12.32;1.92;;;;;;;3.24;100.00;98774.34;4952456;28;20459;-77
2022/04/08 01:59:33;;;;;;;14.15;1.85;;;;;;;3.21;100.00;98774.66;4952653;28;20735;-74
2022/04/08 02:02:02;;;;;;;12.25;1.85;;;;;;;3.23;100.00;98780.50;4968959;28;20045;-76
2022/04/08 02:04:29;;;;;;;14.55;1.80;;;;;;;3.22;100.00;98784.06;4950475;28;20050;-75
2022/04/08 02:06:55;;;;;;;17.38;1.88;;;;;;;3.20;100.00;98785.97;4966581;28;20126;-77
2022/04/08 02:09:20;;;;;;;11.45;1.58;;;;;;;3.19;100.00;98789.53;4968460;28;20179;-76
2022/04/08 02:11:46;;;;;;;9.02;1.60;;;;;;;3.24;100.00;98795.06;4979862;28;20141;-73
2022/04/08 02:14:11;;;;;;;11.73;1.67;;;;;;;3.23;100.00;98796.88;4949905;28;20400;-77
2022/04/08 02:16:37;;;;;;;14.43;1.73;;;;;;;3.18;100.00;98803.44;4980657;28;20392;-76
2022/04/08 02:19:03;;;;;;;6.43;1.45;;;;;;;3.20;100.00;98811.88;4963137;28;20022;-76
2022/04/08 02:21:30;;;;;;;8.48;1.65;;;;;;;3.11;100.00;98806.63;4967081;28;20559;-76
2022/04/08 02:23:56;;;;;;;6.50;1.27;;;;;;;3.11;100.00;98811.00;4952177;28;20399;-77
2022/04/08 02:26:21;;;;;;;11.02;1.75;;;;;;;3.12;100.00;98817.81;4978644;28;20030;-76
2022/04/08 02:28:47;;;;;;;11.73;1.80;;;;;;;3.22;100.00;98817.72;4950468;28;20039;-77
2022/04/08 02:31:13;;;;;;;10.52;1.70;;;;;;;3.19;100.00;98825.81;4961445;28;20554;-74
2022/04/08 02:33:39;;;;;;;15.43;1.58;;;;;;;3.15;100.00;98832.25;4952565;28;20497;-75
2022/04/08 02:36:06;;;;;;;13.73;1.55;;;;;;;3.15;100.00;98840.03;4960678;28;20039;-75
2022/04/08 02:38:32;;;;;;;13.77;1.80;;;;;;;3.09;100.00;98831.06;4950014;28;20093;-76
2022/04/08 02:40:57;;;;;;;14.18;1.88;;;;;;;3.19;100.00;98841.38;4964984;28;20031;-76
2022/04/08 02:43:23;;;;;;;11.20;1.90;;;;;;;3.13;100.00;98860.91;4951174;28;20038;-75
2022/04/08 02:45:50;;;;;;;11.57;1.55;;;;;;;3.04;100.00;98867.75;4964631;28;20543;-74
2022/04/08 02:48:15;;;;;;;7.20;1.08;;;;;;;2.91;100.00;98891.38;4949794;28;20042;-77
2022/04/08 02:50:42;;;;;;;6.50;1.15;;;;;;;2.84;100.00;98882.53;4949615;28;20030;-75
2022/04/08 02:53:08;;;;;;;12.70;1.38;;;;;;;2.95;100.00;98891.09;4946789;28;20054;-76
2022/04/08 02:55:35;;;;;;;13.93;1.65;;;;;;;2.75;100.00;98882.59;4966138;28;20042;-77
2022/04/08 02:58:03;;;;;;;16.13;1.92;;;;;;;2.87;100.00;98897.81;4965539;28;20034;-77
2022/04/08 03:00:29;;;;;;;13.82;1.98;;;;;;;2.80;100.00;98903.69;4978450;28;20122;-76
2022/04/08 03:02:55;;;;;;;15.75;2.50;;;;;;;2.72;100.00;98917.34;4964005;28;20544;-76
2022/04/08 03:05:22;;;;;;;22.73;2.58;;;;;;;2.79;100.00;98933.97;4961337;28;20065;-75
2022/04/08 03:07:48;;;;;;;11.55;1.90;;;;;;;2.81;100.00;98937.22;4966442;28;20034;-76
2022/04/08 03:10:14;;;;;;;17.95;2.42;;;;;;;2.78;100.00;98929.72;4976762;28;20035;-76
2022/04/08 03:12:40;;;;;;;14.90;2.22;;;;;;;2.85;100.00;98938.56;4956590;28;20050;-77
2022/04/08 03:15:06;;;;;;;17.45;1.88;;;;;;;2.84;100.00;98944.69;4960643;28;20054;-75
2022/04/08 03:17:34;;;;;;;10.15;1.67;;;;;;;2.89;100.00;98952.06;4960666;28;20047;-75
2022/04/08 03:20:00;;;;;;;13.30;2.00;;;;;;;2.82;100.00;98928.47;4958322;28;20046;-76
2022/04/08 03:22:25;;;;;;;9.88;1.60;;;;;;;3.00;100.00;98935.53;4951347;28;20042;-75
2022/04/08 03:24:51;;;;;;;19.23;2.10;;;;;;;2.96;100.00;98931.56;4962642;28;20478;-76
2022/04/08 03:27:17;;;;;;;13.30;1.30;;;;;;;2.88;100.00;98943.47;4931951;28;20034;-76
2022/04/08 03:29:43;;;;;;;9.07;1.60;;;;;;;2.69;100.00;98939.16;4963796;28;20369;-76
2022/04/08 03:32:10;;;;;;;9.88;1.27;;;;;;;2.73;100.00;98929.31;4943975;28;20042;-74
2022/04/08 03:34:36;;;;;;;13.20;2.10;;;;;;;2.63;100.00;98934.53;4957163;28;20465;-75
2022/04/08 03:37:04;;;;;;;9.80;1.40;;;;;;;2.59;100.00;98942.72;4931695;28;20102;-75
2022/04/08 03:39:30;;;;;;;13.45;1.60;;;;;;;2.57;100.00;98955.81;4936158;28;20088;-76
2022/04/08 03:41:56;;;;;;;13.10;1.25;;;;;;;2.56;100.00;98959.34;4971912;28;20043;-75
2022/04/08 03:44:22;;;;;;;10.60;1.40;;;;;;;2.66;100.00;98956.75;4952010;28;20081;-75
2022/04/08 03:46:47;;;;;;;11.85;1.33;;;;;;;2.60;100.00;98963.31;4969844;28;20046;-76
2022/04/08 03:49:14;;;;;;;13.60;1.52;;;;;;;2.60;100.00;98963.31;4952039;28;20062;-77
2022/04/08 03:51:43;;;;;;;10.27;1.60;;;;;;;2.58;100.00;98967.81;4944245;28;20402;-74
2022/04/08 03:54:10;;;;;;;7.15;1.30;;;;;;;2.71;100.00;98983.03;4952910;28;20485;-77
2022/04/08 03:56:36;;;;;;;9.85;1.48;;;;;;;2.63;100.00;98985.50;4968681;28;20456;-76
2022/04/08 03:59:03;;;;;;;10.40;2.05;;;;;;;2.59;100.00;98984.16;4952421;28;20642;-76
2022/04/08 04:01:29;;;;;;;11.68;1.52;;;;;;;2.46;100.00;98995.59;4964956;28;20459;-75
2022/04/08 04:03:55;;;;;;;11.15;1.50;;;;;;;2.52;100.00;98989.03;4967934;28;20121;-76
2022/04/08 04:06:21;;;;;;;9.30;1.50;;;;;;;2.44;100.00;98994.91;4952676;28;20076;-75
2022/04/08 04:08:46;;;;;;;14.27;1.52;;;;;;;2.46;100.00;98994.78;4952382;28;20031;-76
2022/04/08 04:11:15;;;;;;;11.10;1.92;;;;;;;2.44;100.00;99002.69;4966892;28;20041;-76
2022/04/08 04:13:42;;;;;;;11.38;1.52;;;;;;;2.45;100.00;99011.25;4967840;28;20043;-76
2022/04/08 04:16:07;;;;;;;14.43;1.65;;;;;;;2.45;100.00;99006.91;4955336;28;20042;-75
2022/04/08 04:18:33;;;;;;;8.75;1.63;;;;;;;2.45;100.00;99021.59;4948478;28;20034;-75
2022/04/08 04:20:58;;;;;;;9.73;1.52;;;;;;;2.44;100.00;99025.16;4967575;28;20415;-76
2022/04/08 04:23:24;;;;;;;16.13;1.90;;;;;;;2.53;100.00;99037.28;4966342;28;20734;-75
2022/04/08 04:25:50;;;;;;;12.88;1.60;;;;;;;2.48;100.00;99042.03;4952587;28;20027;-75
2022/04/08 04:28:16;;;;;;;12.15;1.75;;;;;;;2.50;100.00;99042.72;4969006;28;20065;-75
2022/04/08 04:30:42;;;;;;;11.85;1.77;;;;;;;2.39;100.00;99045.44;4951380;28;20031;-76
2022/04/08 04:33:08;;;;;;;11.57;1.70;;;;;;;2.42;100.00;99051.16;4948311;28;20480;-75
2022/04/08 04:35:38;;;;;;;15.90;2.03;;;;;;;2.37;100.00;99057.69;4968791;28;20045;-76
2022/04/08 04:38:05;;;;;;;11.38;1.50;;;;;;;2.41;100.00;99064.22;4965078;28;20030;-76
2022/04/08 04:40:31;;;;;;;16.17;2.13;;;;;;;2.39;100.00;99073.91;4950805;28;20568;-76
2022/04/08 04:42:57;;;;;;;12.73;2.17;;;;;;;2.45;100.00;99074.19;4968419;28;20088;-76
2022/04/08 04:45:23;;;;;;;12.98;1.70;;;;;;;2.41;100.00;99078.00;4950872;28;20039;-75
2022/04/08 04:47:49;;;;;;;20.35;2.55;;;;;;;2.39;100.00;99084.25;4969005;28;20034;-77
2022/04/08 04:50:15;;;;;;;19.95;2.85;;;;;;;2.34;100.00;99085.47;4949228;28;20377;-75
2022/04/08 04:52:40;;;;;;;19.33;2.22;;;;;;;2.35;100.00;99091.47;4953482;28;20057;-76
2022/04/08 04:55:06;;;;;;;16.30;1.98;;;;;;;2.30;100.00;99088.47;4946056;28;20508;-75
2022/04/08 04:57:33;;;;;;;15.20;2.22;;;;;;;2.30;100.00;99089.28;4967343;28;20051;-75
2022/04/08 04:59:58;;;;;;;18.17;2.33;;;;;;;2.28;100.00;99098.97;4952882;28;20039;-78
2022/04/08 05:02:24;;;;;;;18.17;2.70;;;;;;;2.30;100.00;99101.41;4965101;28;20158;-76
2022/04/08 05:04:50;;;;;;;12.95;2.10;;;;;;;2.32;100.00;99100.31;4979682;28;20181;-75
2022/04/08 05:07:16;;;;;;;17.13;2.70;;;;;;;2.43;100.00;99109.75;4965315;28;20042;-75
2022/04/08 05:09:41;;;;;;;18.45;2.85;;;;;;;2.41;100.00;99113.41;4961096;28;20039;-77
2022/04/08 05:12:08;;;;;;;20.90;2.22;;;;;;;2.53;100.00;99115.75;4966826;28;20403;-79
2022/04/08 05:14:34;;;;;;;18.45;2.65;;;;;;;2.57;100.00;99113.69;4939214;28;20042;-76
2022/04/08 05:17:00;;;;;;;17.02;2.33;;;;;;;2.65;100.00;99115.63;4948609;28;20039;-76
2022/04/08 05:19:26;;;;;;;17.85;2.97;;;;;;;2.68;100.00;99107.59;4965592;28;20030;-76
2022/04/08 05:21:52;;;;;;;21.23;2.90;;;;;;;2.68;100.00;99121.34;4967079;28;20441;-77
2022/04/08 05:24:19;;;;;;;19.17;2.20;;;;;;;2.78;100.00;99129.09;4944648;28;20488;-77
2022/04/08 05:26:45;;;;;;;20.00;2.20;;;;;;;2.78;100.00;99131.69;4948374;28;20049;-75
2022/04/08 05:29:11;;;;;;;20.90;2.42;;;;;;;2.75;100.00;99129.41;4967187;28;20048;-76
2022/04/08 05:31:37;;;;;;;13.57;2.03;;;;;;;2.76;100.00;99145.75;4966290;28;20381;-76
2022/04/08 05:34:03;;;;;;;17.05;2.75;;;;;;;2.69;100.00;99146.28;4950313;28;20065;-76
2022/04/08 05:36:28;;;;;;;16.15;2.10;;;;;;;2.68;100.00;99149.00;4971193;28;20353;-77
2022/04/08 05:38:54;;;;;;;30.17;3.20;;;;;;;2.67;100.00;99161.13;4967713;28;20034;-77
2022/04/08 05:41:20;;;;;;;19.55;2.45;;;;;;;2.61;100.00;99148.72;4949402;28;20089;-76
2022/04/08 05:43:46;;;;;;;17.05;2.50;;;;;;;2.65;100.00;99164.81;4967192;28;20051;-76
2022/04/08 05:46:12;;;;;;;19.00;2.47;;;;;;;2.64;100.00;99170.94;4950439;28;20042;-76
2022/04/08 05:48:38;;;;;;;12.32;2.10;;;;;;;2.65;100.00;99168.19;4947736;28;20034;-76
2022/04/08 05:51:03;;;;;;;16.50;2.00;;;;;;;2.68;100.00;99167.13;4963778;28;20049;-76
2022/04/08 05:53:29;;;;;;;13.32;2.05;;;;;;;2.73;100.00;99176.13;4963375;28;20035;-76
2022/04/08 05:55:55;;;;;;;16.02;2.30;;;;;;;2.80;100.00;99165.22;4951230;28;20399;-78
2022/04/08 05:58:21;;;;;;;17.25;2.83;;;;;;;2.90;100.00;99182.41;4964562;28;20066;-77
2022/04/08 06:00:47;;;;;;;11.60;2.03;;;;;;;3.01;100.00;99193.59;4964515;28;20066;-76
2022/04/08 06:03:13;;;;;;;13.73;2.13;;;;;;;3.06;100.00;99188.81;4959386;28;20119;-76
2022/04/08 06:05:38;;;;;;;18.83;2.33;;;;;;;3.10;100.00;99190.19;4966810;28;20043;-77
2022/04/08 06:08:04;;;;;;;18.75;2.38;;;;;;;3.13;100.00;99189.94;4949687;28;20046;-76
2022/04/08 06:10:30;;;;;;;19.27;2.40;;;;;;;3.15;100.00;99184.59;4963274;28;20034;-76
2022/04/08 06:12:56;;;;;;;14.15;1.63;;;;;;;3.26;100.00;99192.25;4950680;28;20547;-76
2022/04/08 06:15:24;;;;;;;13.73;2.67;;;;;;;3.38;100.00;99196.31;4966168;28;21143;-75
2022/04/08 06:17:50;;;;;;;16.50;2.25;;;;;;;3.39;100.00;99200.53;4963014;28;20121;-77
2022/04/08 06:20:17;;;;;;;16.83;2.83;;;;;;;3.44;100.00;99206.13;4962572;28;20117;-75
2022/04/08 06:22:44;;;;;;;16.33;2.50;;;;;;;3.57;100.00;99199.84;4949074;28;20058;-76
2022/04/08 06:25:15;;;;;;;16.77;2.25;;;;;;;3.64;100.00;99209.50;4967023;28;20030;-76
2022/04/08 06:27:41;;;;;;;19.60;2.22;;;;;;;3.74;100.00;99201.69;4944292;28;20039;-76
2022/04/08 06:30:09;;;;;;;20.20;2.10;;;;;;;3.72;100.00;99218.38;4962135;28;20034;-76
2022/04/08 06:32:36;;;;;;;12.57;2.05;;;;;;;3.73;100.00;99209.63;4948827;28;20050;-77
2022/04/08 06:35:02;;;;;;;13.25;1.88;;;;;;;3.73;100.00;99217.41;4978538;28;20034;-77
2022/04/08 06:37:28;;;;;;;14.05;2.30;;;;;;;3.65;100.00;99211.13;4963232;28;20049;-76
2022/04/08 06:39:55;;;;;;;11.77;1.90;;;;;;;3.80;100.00;99215.88;4957975;28;20119;-76
2022/04/08 06:42:24;;;;;;;14.75;2.13;;;;;;;3.80;100.00;99223.66;4960521;28;20145;-77
2022/04/08 06:44:50;;;;;;;16.88;2.45;;;;;;;3.85;100.00;99216.28;4942782;28;20131;-77
2022/04/08 06:47:18;;;;;;;13.63;2.00;;;;;;;3.94;100.00;99222.38;4949026;28;20038;-77
2022/04/08 06:49:46;;;;;;;10.45;1.48;;;;;;;3.91;100.00;99228.69;4964232;28;20089;-77
2022/04/08 06:52:13;;;;;;;11.20;1.83;;;;;;;3.94;100.00;99227.56;4952190;28;20525;-78
2022/04/08 06:54:39;;;;;;;12.80;1.48;;;;;;;4.05;100.00;99217.88;4953480;28;20144;-75
2022/04/08 06:57:05;;;;;;;9.00;1.92;;;;;;;4.04;100.00;99234.38;4950481;28;20041;-75
2022/04/08 06:59:30;;;;;;;6.53;1.25;;;;;;;3.98;100.00;99227.16;4964552;28;20027;-79
2022/04/08 07:01:56;;;;;;;7.10;1.42;;;;;;;3.92;100.00;99226.91;4966137;28;20689;-76
2022/04/08 07:04:22;;;;;;;7.50;1.23;;;;;;;3.87;100.00;99224.75;4949443;28;20073;-78
2022/04/08 07:06:47;;;;;;;7.55;1.38;;;;;;;3.93;100.00;99228.56;4945220;28;20039;-76
2022/04/08 07:09:13;;;;;;;9.23;1.40;;;;;;;4.00;100.00;99237.41;4935899;28;20066;-77
2022/04/08 07:11:39;;;;;;;9.75;1.48;;;;;;;4.06;100.00;99239.44;4965803;28;20038;-76
2022/04/08 07:14:05;;;;;;;10.73;1.55;;;;;;;3.99;100.00;99246.97;4950579;28;20037;-78
2022/04/08 07:16:30;;;;;;;7.93;1.17;;;;;;;3.98;100.00;99249.72;4966551;28;20093;-76
2022/04/08 07:18:56;;;;;;;8.75;1.00;;;;;;;4.06;100.00;99245.44;4964554;28;20499;-76
2022/04/08 07:21:22;;;;;;;9.35;1.50;;;;;;;4.32;100.00;99254.38;4951203;28;20045;-78
2022/04/08 07:23:48;;;;;;;5.97;1.13;;;;;;;4.25;100.00;99257.53;4936468;28;20039;-77
2022/04/08 07:26:14;;;;;;;5.45;1.10;;;;;;;4.28;100.00;99261.63;4968983;28;20034;-76
2022/04/08 07:28:40;;;;;;;4.13;1.10;;;;;;;4.39;100.00;99260.63;4968610;28;20703;-77
2022/04/08 07:31:05;;;;;;;6.53;0.85;;;;;;;4.54;100.00;99266.16;4954359;28;20039;-77
2022/04/08 07:33:31;;;;;;;10.32;1.77;;;;;;;4.41;100.00;99275.13;4951941;28;20054;-78
2022/04/08 07:35:58;;;;;;;5.97;1.10;;;;;;;4.20;100.00;99270.13;4969892;28;20043;-77
2022/04/08 07:38:24;;;;;;;7.70;1.30;;;;;;;4.27;100.00;99289.34;4979841;28;20031;-79
2022/04/08 07:40:50;;;;;;;3.40;0.95;;;;;;;4.47;100.00;99279.72;4967678;28;20557;-77
2022/04/08 07:43:16;;;;;;;3.22;0.68;;;;;;;4.29;100.00;99279.66;4966778;28;20031;-77
2022/04/08 07:45:43;;;;;;;2.58;0.88;;;;;;;4.22;100.00;99286.38;4968788;28;20515;-76
2022/04/08 07:48:09;;;;;;;4.88;0.68;;;;;;;4.21;100.00;99299.50;4954737;28;20546;-77
2022/04/08 07:50:37;;;;;;;1.75;0.50;;;;;;;4.03;100.00;99292.44;4955383;28;20034;-76
2022/04/08 07:53:04;;;;;;;2.28;0.60;;;;;;;3.94;100.00;99297.63;4968305;28;20079;-78
2022/04/08 07:55:29;;;;;;;4.07;0.70;;;;;;;4.14;100.00;99301.81;4968537;28;20042;-77
2022/04/08 07:57:55;;;;;;;2.55;0.68;;;;;;;4.34;100.00;99314.75;4970531;28;20663;-77
2022/04/08 08:00:25;;;;;;;6.93;0.82;;;;;;;4.08;100.00;99308.38;4953320;28;21083;-77
2022/04/08 08:02:51;;;;;;;6.43;1.25;;;;;;;4.23;100.00;99318.34;4969713;28;20038;-77
2022/04/08 08:05:18;;;;;;;7.25;1.10;;;;;;;4.43;100.00;99312.13;4975958;28;20057;-77
2022/04/08 08:07:52;;;;;;;9.13;1.25;;;;;;;4.56;100.00;99310.97;4994191;28;20065;-77
2022/04/08 08:10:23;;;;;;;9.48;1.00;;;;;;;4.41;100.00;99308.88;4960443;28;20038;-77
2022/04/08 08:12:49;;;;;;;9.93;1.40;;;;;;;4.16;100.00;99312.88;4958490;28;20034;-75
2022/04/08 08:15:16;;;;;;;7.15;1.25;;;;;;;4.20;100.00;99314.25;4949007;28;20041;-78
2022/04/08 08:17:42;;;;;;;10.43;1.42;;;;;;;4.07;100.00;99308.56;4953966;28;20058;-76
2022/04/08 08:20:09;;;;;;;6.93;1.40;;;;;;;4.25;100.00;99311.22;4938293;28;20760;-78
2022/04/08 08:22:36;;;;;;;5.30;1.50;;;;;;;4.38;100.00;99324.72;4982039;28;20031;-75
2022/04/08 08:25:03;;;;;;;9.50;1.25;;;;;;;4.82;100.00;99330.16;4950768;28;20054;-73
2022/04/08 08:27:52;;;;;;;9.13;1.35;;;;;;;4.78;100.00;99315.81;4943630;28;20031;-77
2022/04/08 08:30:18;;;;;;;9.93;1.10;;;;;;;4.78;100.00;99331.38;4950528;28;20189;-76
2022/04/08 08:32:46;;;;;;;6.28;1.30;;;;;;;4.88;100.00;99320.97;4969729;28;20123;-75
2022/04/08 08:35:13;;;;;;;7.60;1.48;;;;;;;4.77;100.00;99331.56;4951330;28;20027;-75
2022/04/08 08:37:40;;;;;;;8.32;1.50;;;;;;;4.79;100.00;99330.44;4952224;28;20070;-78
2022/04/08 08:40:07;;;;;;;6.47;1.23;;;;;;;4.81;100.00;99335.50;4951258;28;20037;-79
2022/04/08 08:42:37;;;;;;;10.90;1.55;;;;;;;4.88;100.00;99332.19;4962298;28;20404;-77
2022/04/08 08:45:04;;;;;;;9.27;1.52;;;;;;;5.32;100.00;99328.09;4962745;28;20043;-76
2022/04/08 08:47:30;;;;;;;10.30;1.70;;;;;;;5.40;100.00;99331.59;4967855;28;20045;-79
2022/04/08 08:49:56;;;;;;;9.73;1.58;;;;;;;5.59;100.00;99329.81;4966184;28;20092;-77
2022/04/08 08:52:23;;;;;;;6.60;1.30;;;;;;;5.97;100.00;99343.50;4950889;28;20137;-80
2022/04/08 08:54:50;;;;;;;6.95;1.50;;;;;;;5.77;100.00;99342.84;4963080;28;20623;-77
2022/04/08 08:57:17;;;;;;;9.48;1.48;;;;;;;5.25;100.00;99341.69;4966663;28;20031;-76
2022/04/08 08:59:46;;;;;;;8.38;1.35;;;;;;;5.31;100.00;99352.47;4966168;28;20034;-75
2022/04/08 09:02:17;;;;;;;6.72;1.20;;;;;;;5.51;100.00;99340.97;4948669;28;20042;-76
2022/04/08 09:04:43;;;;;;;9.93;1.33;;;;;;;5.43;100.00;99346.91;4966979;28;20742;-76
2022/04/08 09:07:27;;;;;;;12.45;1.15;;;;;;;5.38;100.00;99343.91;4963252;28;20035;-75
2022/04/08 09:09:54;;;;;;;7.50;1.20;;;;;;;5.49;100.00;99344.69;4957611;28;20047;-78
2022/04/08 09:12:24;;;;;;;11.45;1.40;;;;;;;5.66;100.00;99344.69;4967699;28;20049;-77
2022/04/08 09:14:51;;;;;;;5.03;1.25;;;;;;;5.81;100.00;99357.97;4950843;28;20675;-77
2022/04/08 09:17:18;;;;;;;4.82;1.02;;;;;;;6.19;98.23;99343.00;4952743;28;20043;-76
2022/04/08 09:19:48;;;;;;;6.88;1.63;;;;;;;6.31;96.82;99348.81;4964240;28;20042;-77
2022/04/08 09:22:14;;;;;;;5.35;1.02;;;;;;;6.11;96.59;99352.56;4962621;28;20088;-77
2022/04/08 09:24:40;;;;;;;4.65;0.90;;;;;;;6.07;99.93;99333.00;4966285;28;20476;-75
2022/04/08 09:27:05;;;;;;;10.23;1.30;;;;;;;5.88;95.32;99358.22;4967624;28;20052;-78
2022/04/08 09:29:31;;;;;;;6.95;1.00;;;;;;;5.59;94.23;99348.84;4952488;28;20144;-77
2022/04/08 09:31:59;;;;;;;4.25;0.98;;;;;;;5.77;94.54;99345.44;4953374;28;20038;-77
2022/04/08 09:34:25;;;;;;;10.13;1.02;;;;;;;5.87;94.43;99345.34;4966206;28;20043;-76
2022/04/08 09:36:51;;;;;;;2.90;0.70;;;;;;;6.25;93.83;99346.78;4951644;28;20101;-77
2022/04/08 09:39:18;;;;;;;5.78;0.95;;;;;;;6.51;92.60;99349.38;4967641;28;20031;-77
2022/04/08 09:41:46;;;;;;;4.13;0.95;;;;;;;6.40;91.69;99347.03;4947827;28;20042;-78
2022/04/08 09:44:13;;;;;;;6.07;1.23;;;;;;;5.99;88.26;99350.19;4931774;28;20500;-77
2022/04/08 09:46:39;;;;;;;4.82;0.85;;;;;;;5.67;92.20;99342.91;4952703;28;20045;-77
2022/04/08 09:49:06;;;;;;;12.55;1.48;;;;;;;6.00;91.94;99332.78;4951376;28;20035;-76
2022/04/08 09:51:41;;;;;;;6.13;0.93;;;;;;;5.95;89.59;99335.84;4951552;28;20074;-76
2022/04/08 09:54:10;;;;;;;5.07;0.90;;;;;;;6.18;89.10;99340.59;4962285;28;20035;-77
2022/04/08 09:56:37;;;;;;;7.90;1.10;;;;;;;6.76;92.67;99352.13;4961907;28;20051;-78
2022/04/08 09:59:19;;;;;;;6.20;0.85;;;;;;;6.68;88.29;99347.69;4952510;28;20042;-78
2022/04/08 10:01:46;;;;;;;3.97;1.05;;;;;;;6.59;86.67;99359.88;4957837;28;20035;-77
2022/04/08 10:04:12;;;;;;;4.57;0.90;;;;;;;6.01;88.68;99340.44;4947185;28;20043;-78
2022/04/08 10:06:40;;;;;;;7.10;1.00;;;;;;;5.83;87.38;99344.81;4953165;28;20041;-78
2022/04/08 10:09:08;;;;;;;6.13;0.90;;;;;;;6.06;87.54;99337.38;4982640;28;20035;-77
2022/04/08 10:11:44;;;;;;;6.78;1.10;;;;;;;6.42;91.99;99342.50;4952542;28;20101;-79
2022/04/08 10:14:23;;;;;;;3.85;0.63;;;;;;;6.77;85.92;99343.34;4949113;28;20444;-78
2022/04/08 10:16:52;;;;;;;6.97;1.10;;;;;;;6.82;91.07;99341.09;4951122;28;20060;-78
2022/04/08 10:19:19;;;;;;;5.35;0.75;;;;;;;6.92;84.85;99330.53;4961663;28;20039;-78
2022/04/08 10:21:53;;;;;;;4.82;0.82;;;;;;;6.58;79.33;99334.78;4935136;28;20819;-78
2022/04/08 10:24:24;;;;;;;7.18;0.80;;;;;;;7.02;85.99;99339.84;4942825;28;20107;-78
2022/04/08 10:27:09;;;;;;;4.30;0.80;;;;;;;7.16;87.23;99332.41;4950736;28;20039;-77
2022/04/08 10:29:38;;;;;;;4.03;1.05;;;;;;;6.89;84.74;99328.22;4967637;28;20743;-78
2022/04/08 10:32:13;;;;;;;4.15;1.08;;;;;;;7.09;82.82;99334.00;4949185;28;20408;-78
2022/04/08 10:34:39;;;;;;;3.50;0.68;;;;;;;7.51;80.80;99322.69;4964117;28;20135;-79
2022/04/08 10:37:23;;;;;;;6.32;1.10;;;;;;;7.02;82.10;99323.38;4951490;28;20034;-77
2022/04/08 10:40:02;;;;;;;6.75;0.88;;;;;;;7.22;84.48;99343.00;4951180;28;20027;-77
2022/04/08 10:42:29;;;;;;;4.85;0.88;;;;;;;7.33;81.27;99313.22;4930538;28;20046;-78
2022/04/08 10:44:55;;;;;;;6.75;0.70;;;;;;;7.53;79.87;99321.53;4949293;28;20027;-77
2022/04/08 10:47:23;;;;;;;5.95;1.15;;;;;;;7.52;78.28;99313.91;4965949;28;20101;-77
2022/04/08 10:50:01;;;;;;;6.93;1.02;;;;;;;8.16;81.47;99325.28;4950617;28;20456;-78
2022/04/08 10:52:29;;;;;;;4.50;0.77;;;;;;;8.66;78.21;99317.38;4966533;28;20125;-78
2022/04/08 10:55:09;;;;;;;7.18;0.70;;;;;;;9.00;72.51;99321.47;4967154;28;20031;-79
2022/04/08 10:57:37;;;;;;;4.25;0.68;;;;;;;8.87;68.63;99320.25;4964464;28;20112;-78
2022/04/08 11:00:08;;;;;;;3.47;0.80;;;;;;;8.61;71.68;99315.28;4952461;28;20041;-78
2022/04/08 11:02:39;;;;;;;4.88;0.77;;;;;;;8.50;70.03;99321.66;4949697;28;20039;-77
2022/04/08 11:05:07;;;;;;;3.30;0.60;;;;;;;8.48;69.34;99322.81;4948532;28;20035;-77
2022/04/08 11:07:33;;;;;;;3.60;0.68;;;;;;;8.42;70.39;99326.94;4962998;28;20027;-77
2022/04/08 11:09:59;;;;;;;5.80;0.75;;;;;;;8.70;67.13;99324.72;4951606;28;20061;-78
2022/04/08 11:12:25;;;;;;;3.80;0.60;;;;;;;8.92;66.78;99333.59;4949660;28;20509;-79
2022/04/08 11:14:58;;;;;;;3.83;0.50;;;;;;;9.17;63.30;99336.09;4966569;28;20031;-78
2022/04/08 11:17:34;;;;;;;2.38;0.70;;;;;;;9.43;61.81;99327.13;4943262;28;20035;-78
2022/04/08 11:20:02;;;;;;;5.22;0.75;;;;;;;9.63;66.69;99309.16;4948339;28;20779;-79
2022/04/08 11:22:38;;;;;;;7.38;0.95;;;;;;;9.82;63.80;99324.38;4949245;28;20077;-79
2022/04/08 11:25:04;;;;;;;2.80;0.75;;;;;;;10.04;65.65;99330.59;4964910;28;20031;-80
2022/04/08 11:27:31;;;;;;;7.90;0.95;;;;;;;9.84;63.17;99332.06;4978446;28;20483;-77
2022/04/08 11:29:57;;;;;;;3.83;0.75;;;;;;;9.18;62.61;99313.38;4962329;28;20050;-78